KMTV

Blue Ridge Airport

Martinsville, Virginia, USA
METAR KMTV 160035Z AUTO 00000KT 1SM BR OVC005 05/05 A2996 RMK AO2 T00540054
Observed Flight Rules
Dec-16 @ 00:35 UTC (41 minutes ago) Instrument Flight Rules
Visibility Clouds Conditions
1 miles
  • Overcast at 500' AGL
  • Mist
Temperatures Readings
Current 5°C / 41°F
Dewpoint 5°C / 41°F
Humidity 100%
Altimeter 29.96" Hg
Pressure 1015 hPa
Elevation 287
METAR KMTV 160035Z AUTO 00000KT 1SM BR OVC005 05/05 A2996 RMK AO2 T00540054
Observed Flight Rules
Dec-16 @ 00:35 UTC
(41 minutes ago)
IFR
Clouds
  • Overcast at 500' AGL
Conditions
  • Mist
Temperature Dewpoint
5°C / 41°F 5°C / 41°F
Humidity Altimeter Pressure
100% 29.96" Hg 1015 hPa